createdAt,value
2023-03-11T00:01:13.402Z,83.34
2023-03-11T00:03:39.726Z,83.15
2023-03-11T00:06:06.083Z,83.09
2023-03-11T00:08:32.450Z,83.04
2023-03-11T00:10:59.044Z,82.83
2023-03-11T00:13:25.399Z,82.80
2023-03-11T00:15:51.730Z,82.89
2023-03-11T00:18:18.113Z,83.14
2023-03-11T00:20:44.718Z,82.94
2023-03-11T00:23:11.317Z,82.79
2023-03-11T00:25:37.675Z,82.90
2023-03-11T00:28:04.039Z,82.79
2023-03-11T00:30:30.468Z,82.73
2023-03-11T00:32:57.040Z,82.67
2023-03-11T00:35:23.600Z,82.76
2023-03-11T00:37:49.955Z,82.59
2023-03-11T00:40:16.500Z,82.93
2023-03-11T00:42:43.043Z,82.93
2023-03-11T00:45:09.586Z,82.49
2023-03-11T00:47:35.924Z,82.70
2023-03-11T00:50:02.450Z,82.80
2023-03-11T00:52:28.788Z,82.68
2023-03-11T00:54:55.357Z,82.61
2023-03-11T00:57:21.921Z,82.58
2023-03-11T00:59:48.275Z,82.63
2023-03-11T01:02:14.851Z,82.52
2023-03-11T01:04:41.249Z,82.48
2023-03-11T01:07:09.428Z,82.50
2023-03-11T01:09:36.754Z,82.67
2023-03-11T01:12:03.112Z,82.87
2023-03-11T01:14:29.445Z,82.71
2023-03-11T01:16:55.773Z,82.74
2023-03-11T01:19:22.312Z,83.68
2023-03-11T01:21:49.419Z,82.94
2023-03-11T01:24:15.751Z,82.99
2023-03-11T01:26:42.104Z,82.59
2023-03-11T01:29:08.666Z,82.87
2023-03-11T01:31:35.030Z,83.18
2023-03-11T01:34:01.390Z,83.39
2023-03-11T01:36:27.754Z,82.98
2023-03-11T01:38:54.111Z,82.87
2023-03-11T01:41:20.452Z,82.61
2023-03-11T01:43:46.783Z,82.88
2023-03-11T01:46:13.471Z,82.61
2023-03-11T01:48:39.866Z,82.72
2023-03-11T01:51:06.460Z,83.00
2023-03-11T01:53:32.800Z,82.95
2023-03-11T01:55:59.392Z,82.41
2023-03-11T01:58:25.734Z,82.27
2023-03-11T02:00:52.067Z,82.46
2023-03-11T02:03:19.445Z,82.65
2023-03-11T02:05:45.811Z,82.64
2023-03-11T02:08:12.174Z,82.40
2023-03-11T02:10:38.529Z,82.47
2023-03-11T02:13:05.082Z,82.24
2023-03-11T02:15:31.427Z,82.52
2023-03-11T02:17:58.007Z,82.48
2023-03-11T02:20:24.380Z,82.62
2023-03-11T02:22:50.743Z,82.72
2023-03-11T02:25:17.112Z,82.32
2023-03-11T02:27:43.524Z,82.47
2023-03-11T02:30:09.891Z,82.88
2023-03-11T02:32:36.273Z,82.56
2023-03-11T02:35:14.588Z,82.21
2023-03-11T02:37:40.939Z,82.39
2023-03-11T02:40:07.314Z,82.48
2023-03-11T02:42:33.650Z,82.72
2023-03-11T02:44:59.963Z,82.44
2023-03-11T02:47:26.342Z,82.51
2023-03-11T02:49:52.701Z,82.56
2023-03-11T02:52:19.263Z,82.65
2023-03-11T02:54:45.578Z,82.40
2023-03-11T02:57:11.959Z,82.36
2023-03-11T02:59:38.348Z,82.88
2023-03-11T03:02:04.685Z,82.31
2023-03-11T03:04:31.308Z,82.33
2023-03-11T03:06:57.742Z,82.75
2023-03-11T03:09:24.129Z,82.55
2023-03-11T03:11:50.486Z,82.75
2023-03-11T03:14:16.852Z,82.79
2023-03-11T03:16:43.344Z,82.91
2023-03-11T03:19:09.752Z,82.94
2023-03-11T03:21:36.320Z,82.96
2023-03-11T03:24:02.642Z,82.83
2023-03-11T03:26:28.977Z,82.77
2023-03-11T03:28:55.301Z,82.78
2023-03-11T03:31:21.689Z,82.85
2023-03-11T03:33:48.059Z,82.56
2023-03-11T03:36:14.458Z,82.57
2023-03-11T03:38:41.072Z,82.68
2023-03-11T03:41:07.415Z,82.69
2023-03-11T03:43:33.778Z,82.62
2023-03-11T03:46:00.278Z,82.62
2023-03-11T03:48:26.630Z,82.67
2023-03-11T03:50:53.232Z,82.87
2023-03-11T03:53:19.570Z,82.63
2023-03-11T03:55:45.913Z,83.02
2023-03-11T03:58:12.292Z,82.92
2023-03-11T04:00:38.637Z,82.78
2023-03-11T04:03:05.010Z,82.66
2023-03-11T04:05:31.338Z,82.85
2023-03-11T04:07:57.943Z,82.85
2023-03-11T04:10:24.286Z,82.96
2023-03-11T04:12:50.631Z,82.96
2023-03-11T04:15:16.985Z,82.95
2023-03-11T04:17:43.340Z,82.99
2023-03-11T04:20:09.693Z,82.93
2023-03-11T04:22:36.268Z,82.89
2023-03-11T04:25:02.820Z,83.29
2023-03-11T04:27:29.184Z,83.10
2023-03-11T04:29:55.541Z,83.00
2023-03-11T04:32:21.900Z,82.74
2023-03-11T04:34:48.249Z,82.74
2023-03-11T04:37:14.606Z,82.80
2023-03-11T04:39:40.978Z,82.82
2023-03-11T04:42:07.537Z,82.62
2023-03-11T04:44:33.854Z,82.83
2023-03-11T04:47:00.220Z,82.92
2023-03-11T04:49:26.563Z,82.52
2023-03-11T04:51:52.882Z,82.63
2023-03-11T04:54:19.208Z,82.76
2023-03-11T04:56:45.543Z,82.60
2023-03-11T04:59:11.872Z,82.91
2023-03-11T05:01:38.271Z,82.91
2023-03-11T05:04:04.847Z,82.78
2023-03-11T05:06:31.198Z,82.70
2023-03-11T05:08:57.532Z,82.67
2023-03-11T05:11:23.863Z,82.74
2023-03-11T05:13:50.192Z,82.74
2023-03-11T05:16:16.564Z,82.70
2023-03-11T05:18:42.928Z,82.58
2023-03-11T05:21:09.267Z,82.35
2023-03-11T05:23:35.617Z,82.45
2023-03-11T05:26:01.991Z,82.49
2023-03-11T05:28:28.599Z,82.39
2023-03-11T05:30:54.983Z,82.26
2023-03-11T05:33:21.384Z,82.19
2023-03-11T05:35:47.746Z,82.11
2023-03-11T05:38:14.097Z,82.09
2023-03-11T05:40:40.446Z,82.26
2023-03-11T05:43:06.776Z,82.28
2023-03-11T05:45:33.332Z,82.35
2023-03-11T05:47:59.676Z,82.23
2023-03-11T05:50:26.269Z,81.89
2023-03-11T05:52:52.623Z,82.41
2023-03-11T05:55:18.974Z,82.39
2023-03-11T05:57:45.327Z,82.51
2023-03-11T06:00:11.647Z,82.50
2023-03-11T06:02:37.997Z,81.98
2023-03-11T06:05:06.733Z,81.92
2023-03-11T06:07:34.522Z,82.23
2023-03-11T06:10:00.881Z,81.99
2023-03-11T06:12:27.242Z,82.23
2023-03-11T06:14:53.616Z,82.43
2023-03-11T06:17:20.204Z,82.38
2023-03-11T06:19:46.532Z,82.38
2023-03-11T06:22:12.861Z,82.29
2023-03-11T06:24:39.204Z,82.32
2023-03-11T06:27:05.533Z,82.24
2023-03-11T06:29:31.863Z,82.39
2023-03-11T06:31:58.295Z,82.39
2023-03-11T06:34:24.685Z,82.20
2023-03-11T06:36:51.034Z,82.43
2023-03-11T06:39:17.426Z,81.86
2023-03-11T06:41:43.812Z,82.39
2023-03-11T06:44:10.360Z,82.16
2023-03-11T06:46:36.703Z,82.17
2023-03-11T06:49:03.102Z,82.18
2023-03-11T06:51:29.433Z,82.31
2023-03-11T06:53:55.952Z,81.73
2023-03-11T06:56:22.355Z,82.26
2023-03-11T06:58:48.729Z,82.40
2023-03-11T07:01:15.349Z,82.59
2023-03-11T07:03:41.789Z,82.22
2023-03-11T07:06:08.169Z,82.28
2023-03-11T07:08:34.501Z,82.38
2023-03-11T07:11:00.857Z,82.50
2023-03-11T07:13:27.216Z,82.02
2023-03-11T07:15:53.586Z,82.26
2023-03-11T07:18:19.934Z,82.04
2023-03-11T07:20:46.293Z,82.08
2023-03-11T07:23:12.642Z,82.30
2023-03-11T07:25:39.003Z,82.22
2023-03-11T07:28:05.373Z,82.02
2023-03-11T07:30:31.952Z,81.94
2023-03-11T07:32:58.394Z,81.85
2023-03-11T07:35:24.762Z,82.07
2023-03-11T07:37:51.102Z,81.64
2023-03-11T07:40:17.462Z,82.27
2023-03-11T07:42:43.806Z,82.14
2023-03-11T07:45:10.126Z,82.43
2023-03-11T07:47:36.489Z,82.34
2023-03-11T07:50:02.836Z,82.18
2023-03-11T07:52:29.170Z,81.92
2023-03-11T07:54:55.534Z,81.93
2023-03-11T07:57:21.895Z,82.04
2023-03-11T07:59:48.253Z,82.27
2023-03-11T08:02:14.611Z,81.91
2023-03-11T08:04:40.942Z,82.26
2023-03-11T08:07:07.290Z,82.18
2023-03-11T08:09:33.648Z,82.11
2023-03-11T08:12:00.280Z,82.22
2023-03-11T08:14:26.621Z,81.98
2023-03-11T08:16:52.965Z,81.87
2023-03-11T08:19:19.561Z,81.81
2023-03-11T08:21:45.947Z,81.78
2023-03-11T08:24:12.526Z,82.16
2023-03-11T08:26:38.866Z,81.94
2023-03-11T08:29:05.236Z,82.23
2023-03-11T08:31:31.650Z,82.03
2023-03-11T08:33:58.093Z,81.97
2023-03-11T08:36:24.709Z,81.77
2023-03-11T08:38:51.159Z,81.72
2023-03-11T08:41:17.861Z,82.18
2023-03-11T08:43:44.297Z,81.57
2023-03-11T08:46:10.787Z,81.57
2023-03-11T08:48:37.169Z,81.72
2023-03-11T08:51:03.526Z,81.80
2023-03-11T08:53:29.884Z,82.14
2023-03-11T08:55:56.221Z,81.60
2023-03-11T08:58:22.800Z,81.94
2023-03-11T09:00:49.158Z,82.08
2023-03-11T09:03:15.526Z,82.27
2023-03-11T09:05:41.926Z,81.85
2023-03-11T09:08:08.292Z,81.63
2023-03-11T09:10:34.648Z,81.64
2023-03-11T09:13:01.039Z,81.64
2023-03-11T09:15:27.612Z,81.70
2023-03-11T09:17:53.956Z,81.73
2023-03-11T09:20:20.315Z,81.44
2023-03-11T09:22:46.665Z,81.97
2023-03-11T09:25:12.997Z,81.47
2023-03-11T09:27:39.342Z,81.37
2023-03-11T09:30:05.702Z,81.62
2023-03-11T09:32:32.350Z,81.75
2023-03-11T09:34:58.725Z,81.25
2023-03-11T09:37:25.081Z,81.10
2023-03-11T09:39:51.423Z,81.79
2023-03-11T09:42:17.771Z,81.49
2023-03-11T09:44:44.103Z,81.64
2023-03-11T09:47:10.446Z,81.91
2023-03-11T09:49:37.004Z,81.58
2023-03-11T09:52:03.318Z,81.90
2023-03-11T09:54:29.635Z,81.54
2023-03-11T09:56:55.991Z,81.89
2023-03-11T09:59:22.344Z,81.74
2023-03-11T10:01:48.739Z,82.23
2023-03-11T10:04:15.110Z,81.91
2023-03-11T10:06:41.489Z,81.62
2023-03-11T10:09:07.819Z,82.12
2023-03-11T10:11:34.406Z,81.87
2023-03-11T10:14:00.752Z,81.25
2023-03-11T10:16:27.174Z,81.86
2023-03-11T10:18:53.630Z,81.39
2023-03-11T10:21:20.047Z,81.28
2023-03-11T10:23:46.619Z,81.60
2023-03-11T10:26:13.175Z,82.10
2023-03-11T10:28:39.544Z,81.58
2023-03-11T10:31:05.917Z,81.57
2023-03-11T10:33:32.257Z,81.30
2023-03-11T10:35:58.631Z,81.16
2023-03-11T10:38:25.005Z,81.06
2023-03-11T10:40:51.397Z,81.43
2023-03-11T10:43:17.783Z,81.64
2023-03-11T10:45:44.156Z,81.86
2023-03-11T10:48:10.525Z,81.54
2023-03-11T10:50:36.970Z,81.36
2023-03-11T10:53:03.559Z,81.65
2023-03-11T10:55:30.134Z,81.77
2023-03-11T10:57:57.128Z,81.39
2023-03-11T11:00:23.488Z,81.50
2023-03-11T11:02:49.832Z,81.26
2023-03-11T11:05:16.156Z,81.56
2023-03-11T11:07:42.491Z,81.23
2023-03-11T11:10:08.814Z,81.49
2023-03-11T11:12:35.159Z,81.03
2023-03-11T11:15:01.499Z,81.40
2023-03-11T11:17:27.856Z,81.43
2023-03-11T11:19:54.237Z,81.71
2023-03-11T11:22:20.610Z,81.17
2023-03-11T11:24:47.068Z,81.04
2023-03-11T11:27:13.450Z,81.32
2023-03-11T11:29:39.789Z,80.94
2023-03-11T11:32:06.386Z,81.14
2023-03-11T11:34:32.755Z,80.78
2023-03-11T11:36:59.122Z,80.79
2023-03-11T11:39:25.466Z,80.83
2023-03-11T11:41:51.800Z,80.89
2023-03-11T11:44:18.154Z,81.00
2023-03-11T11:46:44.559Z,80.82
2023-03-11T11:49:10.886Z,81.03
2023-03-11T11:51:37.435Z,81.20
2023-03-11T11:54:03.783Z,81.01
2023-03-11T11:56:30.130Z,80.90
2023-03-11T11:58:56.499Z,80.94
2023-03-11T12:01:22.839Z,81.18
2023-03-11T12:03:49.223Z,81.11
2023-03-11T12:06:15.651Z,81.07
2023-03-11T12:08:42.014Z,80.97
2023-03-11T12:11:08.375Z,81.01
2023-03-11T12:13:34.749Z,81.10
2023-03-11T12:16:02.107Z,81.07
2023-03-11T12:18:28.495Z,81.18
2023-03-11T12:20:55.065Z,80.99
2023-03-11T12:23:21.401Z,81.01
2023-03-11T12:25:48.032Z,81.33
2023-03-11T12:28:14.642Z,81.18
2023-03-11T12:30:41.350Z,81.10
2023-03-11T12:33:07.707Z,80.94
2023-03-11T12:35:34.110Z,80.77
2023-03-11T12:38:00.706Z,80.75
2023-03-11T12:40:27.049Z,80.77
2023-03-11T12:42:53.395Z,81.03
2023-03-11T12:45:19.762Z,81.03
2023-03-11T12:47:46.140Z,81.16
2023-03-11T12:50:12.589Z,80.95
2023-03-11T12:52:39.149Z,81.09
2023-03-11T12:55:05.490Z,81.44
2023-03-11T12:57:32.045Z,81.21
2023-03-11T12:59:58.365Z,81.07
2023-03-11T13:02:24.725Z,81.47
2023-03-11T13:04:51.117Z,81.39
2023-03-11T13:07:17.743Z,81.67
2023-03-11T13:09:44.319Z,81.18
2023-03-11T13:12:10.660Z,81.18
2023-03-11T13:14:37.238Z,81.49
2023-03-11T13:17:03.573Z,81.52
2023-03-11T13:19:30.154Z,81.52
2023-03-11T13:21:56.478Z,81.67
2023-03-11T13:24:22.816Z,81.79
2023-03-11T13:26:49.174Z,81.80
2023-03-11T13:29:15.728Z,82.20
2023-03-11T13:31:42.328Z,81.72
2023-03-11T13:34:08.763Z,81.56
2023-03-11T13:36:35.104Z,81.64
2023-03-11T13:39:01.441Z,82.17
2023-03-11T13:41:27.791Z,82.24
2023-03-11T13:43:54.116Z,82.39
2023-03-11T13:46:20.497Z,82.60
2023-03-11T13:48:47.053Z,82.50
2023-03-11T13:51:13.399Z,82.40
2023-03-11T13:53:40.044Z,82.55
2023-03-11T13:56:06.407Z,82.67
2023-03-11T13:58:33.202Z,82.86
2023-03-11T14:00:59.646Z,82.83
2023-03-11T14:03:26.031Z,83.17
2023-03-11T14:05:52.379Z,83.16
2023-03-11T14:08:18.744Z,83.42
2023-03-11T14:10:45.126Z,83.62
2023-03-11T14:13:11.519Z,83.67
2023-03-11T14:15:37.886Z,83.48
2023-03-11T14:18:04.706Z,83.67
2023-03-11T14:20:31.268Z,82.88
2023-03-11T14:22:57.601Z,81.99
2023-03-11T14:25:24.142Z,82.51
2023-03-11T14:27:50.525Z,82.14
2023-03-11T14:30:17.102Z,82.60
2023-03-11T14:32:43.468Z,82.57
2023-03-11T14:35:09.821Z,82.89
2023-03-11T14:37:36.377Z,83.28
2023-03-11T14:40:02.718Z,81.50
2023-03-11T14:42:29.067Z,82.77
2023-03-11T14:44:55.400Z,82.39
2023-03-11T14:47:21.740Z,81.31
2023-03-11T14:49:48.086Z,80.59
2023-03-11T14:52:14.459Z,79.73
2023-03-11T14:54:41.035Z,79.60
2023-03-11T14:57:07.603Z,80.61
2023-03-11T14:59:36.693Z,80.83
2023-03-11T15:02:03.055Z,80.15
2023-03-11T15:04:29.618Z,80.75
2023-03-11T15:06:55.972Z,80.78
2023-03-11T15:09:22.346Z,80.11
2023-03-11T15:11:48.687Z,79.72
2023-03-11T15:14:15.053Z,80.61
2023-03-11T15:16:41.421Z,80.56
2023-03-11T15:19:07.804Z,80.64
2023-03-11T15:21:34.380Z,80.39
2023-03-11T15:24:00.735Z,80.10
2023-03-11T15:26:27.094Z,79.92
2023-03-11T15:28:53.733Z,81.54
2023-03-11T15:31:20.373Z,79.84
2023-03-11T15:33:46.778Z,79.37
2023-03-11T15:36:13.334Z,80.34
2023-03-11T15:38:39.718Z,80.82
2023-03-11T15:41:06.091Z,80.82
2023-03-11T15:43:32.453Z,80.50
2023-03-11T15:45:58.813Z,80.34
2023-03-11T15:48:25.184Z,81.25
2023-03-11T15:50:53.861Z,82.15
2023-03-11T15:53:20.595Z,81.97
2023-03-11T15:55:46.946Z,82.65
2023-03-11T15:58:13.272Z,82.64
2023-03-11T16:00:39.628Z,80.48
2023-03-11T16:03:05.991Z,83.65
2023-03-11T16:05:32.359Z,83.46
2023-03-11T16:07:58.915Z,84.09
2023-03-11T16:10:25.255Z,83.61
2023-03-11T16:12:51.596Z,84.27
2023-03-11T16:15:18.196Z,84.01
2023-03-11T16:17:49.735Z,84.42
2023-03-11T16:20:16.635Z,83.97
2023-03-11T16:22:42.997Z,83.87
2023-03-11T16:25:09.349Z,84.00
2023-03-11T16:27:35.718Z,83.70
2023-03-11T16:30:02.201Z,84.23
2023-03-11T16:32:28.845Z,83.92
2023-03-11T16:34:55.224Z,83.75
2023-03-11T16:37:21.788Z,83.68
2023-03-11T16:39:48.151Z,83.92
2023-03-11T16:42:14.509Z,83.71
2023-03-11T16:44:40.884Z,83.90
2023-03-11T16:47:07.701Z,83.60
2023-03-11T16:49:34.074Z,83.81
2023-03-11T16:52:00.462Z,83.05
2023-03-11T16:54:27.037Z,83.71
2023-03-11T16:56:53.391Z,84.06
2023-03-11T16:59:19.723Z,83.15
2023-03-11T17:01:46.064Z,83.45
2023-03-11T17:04:12.412Z,83.77
2023-03-11T17:06:38.966Z,83.32
2023-03-11T17:09:05.307Z,83.64
2023-03-11T17:11:31.922Z,83.86
2023-03-11T17:14:10.108Z,83.52
2023-03-11T17:16:42.282Z,83.59
2023-03-11T17:19:08.647Z,83.98
2023-03-11T17:21:35.229Z,83.58
2023-03-11T17:24:01.810Z,83.90
2023-03-11T17:26:28.355Z,83.78
2023-03-11T17:28:54.703Z,83.79
2023-03-11T17:31:21.261Z,83.83
2023-03-11T17:33:47.633Z,83.99
2023-03-11T17:36:14.242Z,84.10
2023-03-11T17:38:40.607Z,83.90
2023-03-11T17:41:06.958Z,83.82
2023-03-11T17:43:33.300Z,83.91
2023-03-11T17:45:59.636Z,84.03
2023-03-11T17:48:26.008Z,83.79
2023-03-11T17:50:52.563Z,84.11
2023-03-11T17:53:18.930Z,83.77
2023-03-11T17:55:45.510Z,83.70
2023-03-11T17:58:11.875Z,83.62
2023-03-11T18:00:38.215Z,83.61
2023-03-11T18:03:04.552Z,84.15
2023-03-11T18:05:30.914Z,83.56
2023-03-11T18:07:57.268Z,84.03
2023-03-11T18:10:23.632Z,83.86
2023-03-11T18:12:50.188Z,83.73
2023-03-11T18:15:16.529Z,83.50
2023-03-11T18:17:42.874Z,83.92
2023-03-11T18:20:09.246Z,83.79
2023-03-11T18:22:36.431Z,83.50
2023-03-11T18:25:03.604Z,83.30
2023-03-11T18:27:29.957Z,83.47
2023-03-11T18:29:56.426Z,83.61
2023-03-11T18:32:23.033Z,83.49
2023-03-11T18:34:49.409Z,83.52
2023-03-11T18:37:15.985Z,83.32
2023-03-11T18:39:42.362Z,83.44
2023-03-11T18:42:08.936Z,83.38
2023-03-11T18:44:36.896Z,83.28
2023-03-11T18:47:03.411Z,83.30
2023-03-11T18:49:29.959Z,83.59
2023-03-11T18:51:56.320Z,83.36
2023-03-11T18:54:22.909Z,83.31
2023-03-11T18:56:49.999Z,82.90
2023-03-11T18:59:16.328Z,83.42
2023-03-11T19:01:42.699Z,83.16
2023-03-11T19:04:09.041Z,83.12
2023-03-11T19:06:35.373Z,83.13
2023-03-11T19:09:01.736Z,82.97
2023-03-11T19:11:28.328Z,83.12
2023-03-11T19:13:54.661Z,83.02
2023-03-11T19:16:21.105Z,82.71
2023-03-11T19:18:47.494Z,83.05
2023-03-11T19:21:13.874Z,83.05
2023-03-11T19:23:40.475Z,83.19
2023-03-11T19:26:06.808Z,83.16
2023-03-11T19:28:33.180Z,83.15
2023-03-11T19:30:59.582Z,83.13
2023-03-11T19:33:25.957Z,82.98
2023-03-11T19:35:52.348Z,83.27
2023-03-11T19:38:18.714Z,83.09
2023-03-11T19:40:45.058Z,83.09
2023-03-11T19:43:11.413Z,83.23
2023-03-11T19:45:37.789Z,82.98
2023-03-11T19:48:04.158Z,82.85
2023-03-11T19:50:30.516Z,83.21
2023-03-11T19:52:56.873Z,82.76
2023-03-11T19:55:23.277Z,83.04
2023-03-11T19:57:49.636Z,82.97
2023-03-11T20:00:16.372Z,82.85
2023-03-11T20:02:42.742Z,82.97
2023-03-11T20:05:09.159Z,82.92
2023-03-11T20:07:35.772Z,82.68
2023-03-11T20:10:02.157Z,82.56
2023-03-11T20:12:28.554Z,82.51
2023-03-11T20:14:55.197Z,82.57
2023-03-11T20:17:21.820Z,82.67
2023-03-11T20:19:48.411Z,82.76
2023-03-11T20:22:14.852Z,82.43
2023-03-11T20:24:41.479Z,82.82
2023-03-11T20:27:07.866Z,82.51
2023-03-11T20:29:34.230Z,82.42
2023-03-11T20:32:00.951Z,82.24
2023-03-11T20:34:27.348Z,82.23
2023-03-11T20:36:53.893Z,82.56
2023-03-11T20:39:20.224Z,82.21
2023-03-11T20:41:46.809Z,82.25
2023-03-11T20:44:13.157Z,82.31
2023-03-11T20:46:39.634Z,82.24
2023-03-11T20:49:05.981Z,82.20
2023-03-11T20:51:32.334Z,82.03
2023-03-11T20:53:58.675Z,82.45
2023-03-11T20:56:25.134Z,82.05
2023-03-11T20:58:51.711Z,82.03
2023-03-11T21:01:20.012Z,82.05
2023-03-11T21:03:46.507Z,81.93
2023-03-11T21:06:13.752Z,81.74
2023-03-11T21:08:40.163Z,81.87
2023-03-11T21:11:06.602Z,81.62
2023-03-11T21:13:33.237Z,81.96
2023-03-11T21:15:59.692Z,81.98
2023-03-11T21:18:26.153Z,81.76
2023-03-11T21:20:52.525Z,81.66
2023-03-11T21:23:18.993Z,81.43
2023-03-11T21:25:45.455Z,81.45
2023-03-11T21:28:11.935Z,81.39
2023-03-11T21:30:38.352Z,81.41
2023-03-11T21:33:04.843Z,81.42
2023-03-11T21:35:31.296Z,81.37
2023-03-11T21:37:57.821Z,81.49
2023-03-11T21:40:24.260Z,81.73
2023-03-11T21:42:50.630Z,81.47
2023-03-11T21:45:17.076Z,81.33
2023-03-11T21:47:43.470Z,80.89
2023-03-11T21:50:09.954Z,81.47
2023-03-11T21:52:36.436Z,81.33
2023-03-11T21:55:02.812Z,80.74
2023-03-11T21:57:29.211Z,81.02
2023-03-11T21:59:55.649Z,81.22
2023-03-11T22:02:22.051Z,80.97
2023-03-11T22:04:48.561Z,80.85
2023-03-11T22:07:15.261Z,81.13
2023-03-11T22:09:41.664Z,81.08
2023-03-11T22:12:08.060Z,80.83
2023-03-11T22:14:34.494Z,80.82
2023-03-11T22:17:00.919Z,80.71
2023-03-11T22:19:27.324Z,80.79
2023-03-11T22:21:53.776Z,81.33
2023-03-11T22:24:20.371Z,81.22
2023-03-11T22:26:46.745Z,81.31
2023-03-11T22:29:13.818Z,80.57
2023-03-11T22:31:40.284Z,80.84
2023-03-11T22:34:06.893Z,81.14
2023-03-11T22:36:33.261Z,80.78
2023-03-11T22:38:59.815Z,80.74
2023-03-11T22:41:26.377Z,81.27
2023-03-11T22:43:52.759Z,80.81
2023-03-11T22:46:19.382Z,81.23
2023-03-11T22:48:45.777Z,80.83
2023-03-11T22:51:12.123Z,81.10
2023-03-11T22:53:38.664Z,81.02
2023-03-11T22:56:05.016Z,80.75
2023-03-11T22:58:31.382Z,81.39
2023-03-11T23:00:57.729Z,80.76
2023-03-11T23:03:24.309Z,80.61
2023-03-11T23:05:50.654Z,80.89
2023-03-11T23:08:17.200Z,80.76
2023-03-11T23:10:43.536Z,80.86
2023-03-11T23:13:10.128Z,81.33
2023-03-11T23:15:36.473Z,80.75
2023-03-11T23:18:02.856Z,81.16
2023-03-11T23:20:29.208Z,81.02
2023-03-11T23:22:55.579Z,80.77
2023-03-11T23:25:22.158Z,80.91
2023-03-11T23:27:48.521Z,81.26
2023-03-11T23:30:15.070Z,80.88
2023-03-11T23:32:41.458Z,80.90
2023-03-11T23:35:08.061Z,80.87
2023-03-11T23:37:34.633Z,81.11
2023-03-11T23:40:00.989Z,80.99
2023-03-11T23:42:27.362Z,81.28
2023-03-11T23:44:53.701Z,80.88
2023-03-11T23:47:20.081Z,81.11
2023-03-11T23:49:46.445Z,81.07
2023-03-11T23:52:12.820Z,81.17
2023-03-11T23:54:39.199Z,80.91
2023-03-11T23:57:05.566Z,81.12
2023-03-11T23:59:31.921Z,81.23
